Aérodrome :
LOGIN :

S'inscrire | Disclaimer

   EN    FR    IT 

 










Légende :    VFR   VFR Marginal   IFR   IFR Intensif   IFR Très Intensif
Visi : 
Plafond : 
>= 8 km
>= 3000ft
5 à 8 km
1000 à 3000 ft
1500m à 5 km
500 à 1000 ft
800 à 1500m
200 à 500 ft
< 800m
< 200 ft
Symboles :   Orages  Brouillard  Fortes neiges  Fortes précipitations  Vent > 20 kt
SIGMETs :   Divers  Orages  Givrage  Turbulence  Onde Orograph.  Cendres Volcan.







- Altitude de l'aérodrome : 821 ft
- Code IATA : LYS
- Voir les cartes d'approche


LFLL - Lyon St Exupéry / Satolas

DERNIER METAR :
  • 151730Z 35020KT CAVOK 25/10 Q1013 NOSIG

METARs EXPIRÉS :
  • 151700Z 36021KT CAVOK 26/10 Q1013 TEMPO 36020G30KT
  • 151630Z 35022KT CAVOK 25/10 Q1013 TEMPO 36020G30KT
  • 151600Z 36022KT CAVOK 26/10 Q1013 TEMPO 36020G30KT
  • 151530Z 35022KT CAVOK 25/10 Q1013 TEMPO 36020G30KT
  • 151500Z 36020KT CAVOK 26/10 Q1013 TEMPO 36020G30KT

TAF TAF LFLL
Valide du 15 à 18h jusqu'au 17 à 00h UTC


151700Z 1518/1624 35015KT CAVOK
TEMPO 1600/1608 VRB02KT
BECMG 1608/1610 36008KT
Pas de NOTAMs connus pour ce terrain.
4 SIGMETs publiés pour la FIR Marseille (LFMM) :
 
Turbulence forte
LFMM SIGMET 14 VALID 151800/152000 LFPW
LFMM MARSEILLE FIR/UIR SEV TURB FCST WI N4430 E00700 - N4400 E00700 - N4415 E00615 - N4430 E00700 SFC/FL100 STNR NC=
Annulation du SIGMET 11
LFMM SIGMET 13 VALID 151715/151900 LFPW
LFMM MARSEILLE FIR/UIR CNL SIGMET 11 151500/151900=
Orages noyés dans la masse
LFMM SIGMET 12 VALID 151600/151800 LFPW
LFMM MARSEILLE FIR/UIR EMBD TS OBS WI N4315 E00930 - N4315 E00945 - N4215 E00945 - N4145 E00745 - N4300 E00715 - N4315 E00930 TOP FL350 MOV SSE 15KT NC=
SIGMET 11  ANNULÉ :
Turbulence forte
LFMM SIGMET 11 VALID 151500/151900 LFPW
LFMM MARSEILLE FIR/UIR SEV TURB FCST WI N4300 E00515 - N4345 E00330 - N4445 E00330 - N4500 E00430 - N4400 E00515 - N4300 E00515 SFC/FL060 STNR WKN=



MET'MAP, la Météo Aéronautique d'un coup d'oeil ! - Copyright ORBIFLY Décembre 2007 - Disclaimer

ORBIFLY MET'MAP TEAM :

Programmation & Développement : Alexandra Zaïnal
Conception & Développement : Baudouin d'Aumeries
Co-Programmation & Développement : Marc-Olivier Méhu
Soutien technique & logistique : Manuel Goepfert

Contact : metmap@orbifly.com




SOURCES & CREDITS :

   NOAA